Terminal Aerodrome Forecast
Issued by NWS Cleveland, OH

Home | Current Version | Previous Version | Graphics & Text | Print | Product List | Glossary On
Versions: 1 2 3 4 5 6 7 8 9 10 11 12 13 14 15 16 17 18 19 20 21 22 23 24 25 26 27 28 29 30 31 32 33 34 35 36 37 38
976
FTUS41 KCLE 090852 AAB
TAFCLE
TAF AMD
KCLE 090852Z 0909/1012 25008KT P6SM OVC015
      TEMPO 0910/0914 OVC008
     FM091600 28012KT 5SM -SHSN OVC012
     FM092000 27014KT P6SM BKN025
     FM100300 26012KT 3SM -SHSN BKN016=

USA.gov is the U.S. government's official web portal to all federal, state and local government web resources and services.